Time;durP1;ratioP1;P1;durP2;ratioP2;P2;SDS_P1;SDS_P2;PMS_P1;PMS_P2;Temp;Humidity;BMP_temperature;BMP_pressure;BME280_temperature;BME280_humidity;BME280_pressure;Samples;Min_cycle;Max_cycle;Signal;HPM_P1;HPM_P2
2021/05/30 00:00:37;;;;;;;7.85;6.75;;;;;;;;;;764331;183;918371;-70
2021/05/30 00:03:03;;;;;;;9.07;6.70;;;;;;;;;;768719;183;624939;-71
2021/05/30 00:05:29;;;;;;;11.60;7.50;;;;;;;;;;762619;183;919334;-69
2021/05/30 00:07:55;;;;;;;12.13;7.50;;;;;;;;;;768602;181;918677;-70
2021/05/30 00:10:20;;;;;;;9.37;7.10;;;;;;;;;;765512;183;918812;-71
2021/05/30 00:12:46;;;;;;;13.33;8.10;;;;;;;;;;764000;183;919546;-70
2021/05/30 00:15:13;;;;;;;14.30;8.43;;;;;;;;;;769557;183;920937;-71
2021/05/30 00:17:38;;;;;;;10.70;8.47;;;;;;;;;;763588;183;919472;-71
2021/05/30 00:20:05;;;;;;;9.97;7.57;;;;;;;;;;763301;182;919102;-71
2021/05/30 00:22:31;;;;;;;8.53;7.03;;;;;;;;;;772747;182;918985;-70
2021/05/30 00:24:57;;;;;;;8.77;6.47;;;;;;;;;;762079;180;1440390;-70
2021/05/30 00:27:23;;;;;;;11.23;7.63;;;;;;;;;;766861;183;919511;-71
2021/05/30 00:29:49;;;;;;;10.67;7.70;;;;;;;;;;766115;183;917947;-71
2021/05/30 00:32:14;;;;;;;10.80;8.33;;;;;;;;;;764415;183;918272;-70
2021/05/30 00:34:40;;;;;;;11.03;8.20;;;;;;;;;;764980;183;919111;-71
2021/05/30 00:37:06;;;;;;;12.43;8.60;;;;;;;;;;765669;183;919592;-71
2021/05/30 00:39:32;;;;;;;15.63;9.00;;;;;;;;;;768969;183;918080;-71
2021/05/30 00:41:58;;;;;;;8.80;7.47;;;;;;;;;;764668;183;927763;-71
2021/05/30 00:44:24;;;;;;;12.30;7.83;;;;;;;;;;768132;183;919411;-71
2021/05/30 00:46:49;;;;;;;10.60;8.00;;;;;;;;;;770449;183;917447;-72
2021/05/30 00:49:15;;;;;;;8.87;6.83;;;;;;;;;;767560;183;918622;-72
2021/05/30 00:51:42;;;;;;;12.23;8.50;;;;;;;;;;766732;183;917699;-71
2021/05/30 00:54:07;;;;;;;14.23;8.30;;;;;;;;;;770360;183;917654;-71
2021/05/30 00:56:33;;;;;;;9.93;7.30;;;;;;;;;;764098;183;920373;-71
2021/05/30 00:58:59;;;;;;;9.43;7.67;;;;;;;;;;765182;183;918647;-71
2021/05/30 01:01:25;;;;;;;10.13;8.07;;;;;;;;;;759324;183;1607962;-71
2021/05/30 01:03:51;;;;;;;11.20;7.43;;;;;;;;;;773056;183;621055;-71
2021/05/30 01:06:17;;;;;;;9.00;6.67;;;;;;;;;;766344;183;918872;-71
2021/05/30 01:08:42;;;;;;;11.80;7.80;;;;;;;;;;767516;183;917823;-72
2021/05/30 01:11:08;;;;;;;10.23;8.57;;;;;;;;;;772898;183;903247;-71
2021/05/30 01:13:34;;;;;;;9.83;7.60;;;;;;;;;;764299;183;918835;-72
2021/05/30 01:16:00;;;;;;;9.60;7.80;;;;;;;;;;763027;183;918549;-72
2021/05/30 01:18:26;;;;;;;9.90;7.03;;;;;;;;;;768707;183;920387;-71
2021/05/30 01:20:52;;;;;;;14.90;7.90;;;;;;;;;;763539;183;919706;-71
2021/05/30 01:23:18;;;;;;;14.13;8.67;;;;;;;;;;762571;183;1021488;-71
2021/05/30 01:25:44;;;;;;;10.40;7.40;;;;;;;;;;765088;183;918985;-71
2021/05/30 01:28:09;;;;;;;11.27;8.07;;;;;;;;;;766232;183;916887;-72
2021/05/30 01:30:35;;;;;;;9.30;6.80;;;;;;;;;;765135;181;916768;-72
2021/05/30 01:33:02;;;;;;;9.47;7.60;;;;;;;;;;764679;182;1018161;-72
2021/05/30 01:35:27;;;;;;;10.33;7.70;;;;;;;;;;770781;183;1019358;-72
2021/05/30 01:37:53;;;;;;;9.40;7.30;;;;;;;;;;756784;183;2246604;-71
2021/05/30 01:40:19;;;;;;;9.05;6.65;;;;;;;;;;765506;183;926462;-72
2021/05/30 01:42:45;;;;;;;15.80;6.80;;;;;;;;;;769859;183;919451;-71
2021/05/30 01:45:11;;;;;;;6.10;5.00;;;;;;;;;;765786;183;919268;-72
2021/05/30 01:47:37;;;;;;;8.00;5.50;;;;;;;;;;764969;183;922024;-72
2021/05/30 01:50:03;;;;;;;8.60;6.30;;;;;;;;;;771009;181;919016;-73
2021/05/30 01:52:29;;;;;;;9.93;6.50;;;;;;;;;;761072;183;920015;-72
2021/05/30 01:54:55;;;;;;;7.37;6.30;;;;;;;;;;763968;181;919008;-72
2021/05/30 01:57:21;;;;;;;11.63;5.73;;;;;;;;;;770836;183;630204;-71
2021/05/30 01:59:47;;;;;;;9.40;6.27;;;;;;;;;;771169;183;626021;-72
2021/05/30 02:02:12;;;;;;;9.03;6.33;;;;;;;;;;769316;183;617868;-72
2021/05/30 02:04:38;;;;;;;6.97;5.57;;;;;;;;;;769022;183;639496;-72
2021/05/30 02:07:04;;;;;;;8.80;5.77;;;;;;;;;;773041;183;630669;-72
2021/05/30 02:09:30;;;;;;;7.80;6.07;;;;;;;;;;768887;183;635238;-72
2021/05/30 02:11:56;;;;;;;8.43;5.97;;;;;;;;;;767938;183;637060;-72
2021/05/30 02:14:22;;;;;;;7.80;5.90;;;;;;;;;;772558;183;627813;-71
2021/05/30 02:16:47;;;;;;;10.00;6.47;;;;;;;;;;767925;183;625233;-71
2021/05/30 02:19:13;;;;;;;12.43;6.07;;;;;;;;;;769826;183;623238;-71
2021/05/30 02:21:43;;;;;;;8.17;5.60;;;;;;;;;;768428;183;631639;-71
2021/05/30 02:24:09;;;;;;;7.53;5.40;;;;;;;;;;763491;183;917732;-71
2021/05/30 02:26:34;;;;;;;7.53;6.47;;;;;;;;;;765584;183;918834;-71
2021/05/30 02:29:00;;;;;;;7.90;7.10;;;;;;;;;;766598;183;913779;-71
2021/05/30 02:31:26;;;;;;;8.97;6.27;;;;;;;;;;772376;183;630984;-71
2021/05/30 02:33:52;;;;;;;9.97;6.87;;;;;;;;;;769092;183;620383;-71
2021/05/30 02:36:18;;;;;;;10.13;6.17;;;;;;;;;;764886;183;919850;-71
2021/05/30 02:38:44;;;;;;;11.57;6.50;;;;;;;;;;769094;183;919466;-71
2021/05/30 02:41:09;;;;;;;9.10;5.97;;;;;;;;;;763730;183;919595;-71
2021/05/30 02:43:35;;;;;;;8.90;6.40;;;;;;;;;;763507;182;919399;-71
2021/05/30 02:46:02;;;;;;;7.70;5.90;;;;;;;;;;768185;183;919130;-71
2021/05/30 02:48:27;;;;;;;11.40;7.70;;;;;;;;;;762856;183;919213;-71
2021/05/30 02:50:59;;;;;;;11.90;7.10;;;;;;;;;;767068;183;917047;-71
2021/05/30 02:53:23;;;;;;;8.00;6.10;;;;;;;;;;764979;183;918220;-71
2021/05/30 02:55:49;;;;;;;11.20;7.20;;;;;;;;;;770881;183;919406;-71
2021/05/30 02:58:15;;;;;;;11.73;6.60;;;;;;;;;;765299;180;918603;-70
2021/05/30 03:00:41;;;;;;;7.60;6.10;;;;;;;;;;766818;183;918410;-71
2021/05/30 03:03:08;;;;;;;9.50;7.05;;;;;;;;;;770415;183;900000;-71
2021/05/30 03:05:34;;;;;;;10.70;6.53;;;;;;;;;;773584;180;619628;-71
2021/05/30 03:07:59;;;;;;;13.97;7.20;;;;;;;;;;768617;183;637665;-71
2021/05/30 03:10:25;;;;;;;11.10;7.27;;;;;;;;;;763921;183;918587;-72
2021/05/30 03:12:51;;;;;;;12.83;6.97;;;;;;;;;;769221;183;919756;-72
2021/05/30 03:15:17;;;;;;;11.60;7.30;;;;;;;;;;765868;183;919569;-72
2021/05/30 03:17:43;;;;;;;13.57;7.37;;;;;;;;;;768316;183;918104;-73
2021/05/30 03:20:10;;;;;;;11.10;8.33;;;;;;;;;;773645;183;625119;-72
2021/05/30 03:22:36;;;;;;;9.70;7.10;;;;;;;;;;768594;183;837691;-73
2021/05/30 03:25:01;;;;;;;11.00;8.70;;;;;;;;;;765132;183;918627;-73
2021/05/30 03:27:27;;;;;;;10.98;7.45;;;;;;;;;;769794;183;921607;-73
2021/05/30 03:29:56;;;;;;;11.07;7.60;;;;;;;;;;765211;181;918719;-73
2021/05/30 03:32:19;;;;;;;12.63;8.93;;;;;;;;;;766841;183;918379;-74
2021/05/30 03:34:45;;;;;;;11.67;8.10;;;;;;;;;;763244;183;1018682;-73
2021/05/30 03:37:11;;;;;;;10.60;7.60;;;;;;;;;;771011;183;919395;-74
2021/05/30 03:39:40;;;;;;;12.95;7.28;;;;;;;;;;763412;183;918693;-74
2021/05/30 03:42:09;;;;;;;12.43;8.70;;;;;;;;;;764754;183;917788;-73
2021/05/30 03:44:28;;;;;;;11.50;8.07;;;;;;;;;;768324;183;919299;-73
2021/05/30 03:46:55;;;;;;;10.00;7.87;;;;;;;;;;765932;183;918423;-74
2021/05/30 03:49:21;;;;;;;11.30;8.32;;;;;;;;;;764554;183;917954;-74
2021/05/30 03:51:47;;;;;;;14.40;9.60;;;;;;;;;;769972;183;919190;-73
2021/05/30 03:54:12;;;;;;;13.17;8.63;;;;;;;;;;768035;181;926059;-74
2021/05/30 03:56:38;;;;;;;11.67;9.10;;;;;;;;;;768382;182;920771;-75
2021/05/30 03:59:04;;;;;;;12.10;8.07;;;;;;;;;;767463;181;1232467;-73
2021/05/30 04:01:30;;;;;;;11.30;8.73;;;;;;;;;;767341;183;632762;-75
2021/05/30 04:03:56;;;;;;;13.07;9.10;;;;;;;;;;767715;180;816807;-74
2021/05/30 04:06:22;;;;;;;11.23;8.60;;;;;;;;;;766111;183;918523;-74
2021/05/30 04:08:47;;;;;;;11.63;9.17;;;;;;;;;;775141;183;623624;-75
2021/05/30 04:11:13;;;;;;;12.40;10.00;;;;;;;;;;767767;183;918613;-74
2021/05/30 04:13:39;;;;;;;14.50;9.00;;;;;;;;;;765881;183;919369;-74
2021/05/30 04:16:05;;;;;;;11.33;8.60;;;;;;;;;;770665;183;919418;-76
2021/05/30 04:18:31;;;;;;;11.57;8.73;;;;;;;;;;763989;183;919337;-76
2021/05/30 04:20:57;;;;;;;13.00;9.52;;;;;;;;;;764511;183;919300;-75
2021/05/30 04:23:23;;;;;;;13.67;9.20;;;;;;;;;;771235;183;918168;-75
2021/05/30 04:25:48;;;;;;;13.93;9.50;;;;;;;;;;765567;183;919466;-75
2021/05/30 04:28:14;;;;;;;16.57;10.33;;;;;;;;;;763125;183;919412;-75
2021/05/30 04:30:40;;;;;;;11.40;9.00;;;;;;;;;;761516;183;1020756;-74
2021/05/30 04:33:06;;;;;;;13.73;9.53;;;;;;;;;;770427;182;919064;-74
2021/05/30 04:35:32;;;;;;;14.77;11.15;;;;;;;;;;763244;183;919186;-74
2021/05/30 04:37:58;;;;;;;11.03;9.63;;;;;;;;;;767471;183;919068;-75
2021/05/30 04:40:24;;;;;;;13.63;9.53;;;;;;;;;;769643;183;918528;-75
2021/05/30 04:42:49;;;;;;;12.90;8.20;;;;;;;;;;767921;182;713751;-75
2021/05/30 04:45:15;;;;;;;12.33;9.70;;;;;;;;;;767158;183;921003;-75
2021/05/30 04:47:41;;;;;;;15.37;9.80;;;;;;;;;;773122;183;629271;-74
2021/05/30 04:50:07;;;;;;;12.80;9.30;;;;;;;;;;766771;183;917817;-73
2021/05/30 04:52:33;;;;;;;11.17;8.77;;;;;;;;;;764845;183;918314;-71
2021/05/30 04:54:59;;;;;;;19.83;9.83;;;;;;;;;;766600;183;915963;-69
2021/05/30 04:57:25;;;;;;;11.90;9.50;;;;;;;;;;762266;183;919449;-72
2021/05/30 04:59:51;;;;;;;12.70;8.20;;;;;;;;;;768164;180;890345;-71
2021/05/30 05:02:17;;;;;;;10.93;8.97;;;;;;;;;;768238;183;918165;-72
2021/05/30 05:04:42;;;;;;;12.07;7.93;;;;;;;;;;771259;183;918127;-72
2021/05/30 05:07:08;;;;;;;11.40;8.03;;;;;;;;;;766495;182;919079;-72
2021/05/30 05:09:34;;;;;;;9.47;8.20;;;;;;;;;;767135;183;918469;-71
2021/05/30 05:12:00;;;;;;;10.37;8.20;;;;;;;;;;769712;183;918360;-72
2021/05/30 05:14:26;;;;;;;9.63;7.70;;;;;;;;;;767858;183;914675;-73
2021/05/30 05:16:52;;;;;;;11.88;8.48;;;;;;;;;;766344;183;921643;-72
2021/05/30 05:19:18;;;;;;;9.90;7.90;;;;;;;;;;770145;183;913103;-73
2021/05/30 05:21:43;;;;;;;11.93;7.73;;;;;;;;;;765233;183;916291;-72
2021/05/30 05:24:09;;;;;;;13.90;9.10;;;;;;;;;;765092;183;919821;-71
2021/05/30 05:26:35;;;;;;;12.67;9.10;;;;;;;;;;764154;183;919477;-72
2021/05/30 05:29:01;;;;;;;11.07;8.40;;;;;;;;;;770783;180;919854;-71
2021/05/30 05:31:27;;;;;;;11.73;8.63;;;;;;;;;;763557;183;919027;-71
2021/05/30 05:33:53;;;;;;;10.83;8.67;;;;;;;;;;764005;183;919194;-73
2021/05/30 05:36:19;;;;;;;12.33;9.60;;;;;;;;;;770993;183;918678;-72
2021/05/30 05:38:44;;;;;;;12.27;8.67;;;;;;;;;;765503;183;911182;-73
2021/05/30 05:41:10;;;;;;;11.70;8.77;;;;;;;;;;764231;183;931465;-72
2021/05/30 05:43:36;;;;;;;23.00;15.83;;;;;;;;;;770181;183;918645;-72
2021/05/30 05:46:02;;;;;;;25.53;16.43;;;;;;;;;;764342;183;921491;-72
2021/05/30 05:48:28;;;;;;;18.13;11.87;;;;;;;;;;759027;183;1738479;-73
2021/05/30 05:50:54;;;;;;;15.48;10.82;;;;;;;;;;768629;183;922492;-71
2021/05/30 05:53:20;;;;;;;14.73;11.40;;;;;;;;;;773561;180;920538;-71
2021/05/30 05:55:46;;;;;;;13.43;9.50;;;;;;;;;;757118;183;2008156;-73
2021/05/30 05:58:12;;;;;;;12.90;8.80;;;;;;;;;;762817;181;921465;-72
2021/05/30 06:00:37;;;;;;;9.83;7.67;;;;;;;;;;771021;183;918686;-70
2021/05/30 06:03:04;;;;;;;12.00;10.03;;;;;;;;;;766312;183;919690;-73
2021/05/30 06:05:29;;;;;;;18.63;10.23;;;;;;;;;;763962;180;918916;-74
2021/05/30 06:07:56;;;;;;;13.30;9.57;;;;;;;;;;771196;183;916607;-73
2021/05/30 06:10:24;;;;;;;14.90;10.70;;;;;;;;;;768049;183;918973;-73
2021/05/30 06:12:49;;;;;;;11.63;8.87;;;;;;;;;;765318;183;916798;-72
2021/05/30 06:15:13;;;;;;;16.47;11.83;;;;;;;;;;771351;183;918514;-73
2021/05/30 06:17:39;;;;;;;63.57;39.40;;;;;;;;;;766004;182;918022;-71
2021/05/30 06:20:05;;;;;;;20.67;13.50;;;;;;;;;;771885;183;641751;-72
2021/05/30 06:22:31;;;;;;;19.20;17.20;;;;;;;;;;771171;183;646892;-71
2021/05/30 06:24:57;;;;;;;18.03;12.93;;;;;;;;;;775195;183;653417;-71
2021/05/30 06:27:23;;;;;;;19.33;14.33;;;;;;;;;;765653;183;816770;-71
2021/05/30 06:29:49;;;;;;;21.07;14.20;;;;;;;;;;765807;183;920604;-72
2021/05/30 06:32:15;;;;;;;20.12;13.88;;;;;;;;;;769543;183;919199;-71
2021/05/30 06:34:40;;;;;;;22.73;15.80;;;;;;;;;;764985;183;918455;-72
2021/05/30 06:37:06;;;;;;;16.30;12.50;;;;;;;;;;766821;183;923087;-71
2021/05/30 06:39:32;;;;;;;24.93;14.23;;;;;;;;;;762660;183;1733085;-71
2021/05/30 06:41:58;;;;;;;23.70;14.70;;;;;;;;;;765006;183;933564;-71
2021/05/30 06:44:24;;;;;;;16.30;11.33;;;;;;;;;;764352;183;919230;-72
2021/05/30 06:46:54;;;;;;;30.90;16.90;;;;;;;;;;769253;182;1022285;-71
2021/05/30 06:49:19;;;;;;;25.70;13.57;;;;;;;;;;767329;183;918455;-71
2021/05/30 06:51:45;;;;;;;18.53;12.00;;;;;;;;;;766020;182;917669;-71
2021/05/30 06:54:11;;;;;;;10.93;8.07;;;;;;;;;;767581;183;915405;-70
2021/05/30 06:56:37;;;;;;;15.57;12.27;;;;;;;;;;771994;183;920739;-70
2021/05/30 06:59:03;;;;;;;18.80;12.73;;;;;;;;;;767431;180;921152;-69
2021/05/30 07:01:29;;;;;;;31.20;21.40;;;;;;;;;;763199;183;922040;-72
2021/05/30 07:03:55;;;;;;;18.83;10.43;;;;;;;;;;769222;183;1078886;-72
2021/05/30 07:06:22;;;;;;;24.73;12.00;;;;;;;;;;765690;183;624150;-72
2021/05/30 07:08:46;;;;;;;18.60;11.90;;;;;;;;;;764936;182;919653;-72
2021/05/30 07:11:12;;;;;;;24.43;14.13;;;;;;;;;;769947;183;627597;-71
2021/05/30 07:13:38;;;;;;;158.70;72.47;;;;;;;;;;775402;180;626545;-71
2021/05/30 07:16:04;;;;;;;67.23;31.17;;;;;;;;;;763882;183;919167;-72
2021/05/30 07:18:30;;;;;;;35.65;22.10;;;;;;;;;;765780;183;918968;-70
2021/05/30 07:20:56;;;;;;;17.20;10.93;;;;;;;;;;771281;183;918144;-71
2021/05/30 07:23:21;;;;;;;14.57;9.70;;;;;;;;;;766590;183;917845;-71
2021/05/30 07:25:47;;;;;;;9.60;7.40;;;;;;;;;;766381;183;915547;-71
2021/05/30 07:28:13;;;;;;;9.80;5.60;;;;;;;;;;769871;178;920177;-72
2021/05/30 07:30:39;;;;;;;6.13;5.53;;;;;;;;;;767752;182;915807;-72
2021/05/30 07:33:05;;;;;;;9.37;6.50;;;;;;;;;;765834;183;919476;-71
2021/05/30 07:35:31;;;;;;;7.53;6.05;;;;;;;;;;769873;183;912060;-72
2021/05/30 07:37:56;;;;;;;7.37;5.30;;;;;;;;;;765235;183;918789;-71
2021/05/30 07:40:22;;;;;;;6.30;5.17;;;;;;;;;;762594;183;1476427;-71
2021/05/30 07:42:48;;;;;;;9.80;4.03;;;;;;;;;;765861;183;919194;-71
2021/05/30 07:45:14;;;;;;;7.00;3.65;;;;;;;;;;771004;183;918577;-73
2021/05/30 07:47:40;;;;;;;6.77;4.20;;;;;;;;;;764702;183;935880;-71
2021/05/30 07:50:06;;;;;;;5.60;3.90;;;;;;;;;;766079;183;919476;-72
2021/05/30 07:52:32;;;;;;;5.80;4.10;;;;;;;;;;770081;183;918683;-71
2021/05/30 07:54:58;;;;;;;5.73;4.73;;;;;;;;;;765457;183;917830;-71
2021/05/30 07:57:24;;;;;;;7.07;3.77;;;;;;;;;;764468;183;918930;-71
2021/05/30 07:59:50;;;;;;;4.90;4.10;;;;;;;;;;767645;183;918441;-73
2021/05/30 08:02:16;;;;;;;4.90;4.10;;;;;;;;;;765191;183;917066;-72
2021/05/30 08:04:41;;;;;;;4.30;3.50;;;;;;;;;;765900;183;918643;-72
2021/05/30 08:07:07;;;;;;;4.70;2.83;;;;;;;;;;762592;183;920015;-72
2021/05/30 08:09:33;;;;;;;5.62;3.65;;;;;;;;;;771844;181;918319;-72
2021/05/30 08:12:00;;;;;;;5.57;4.00;;;;;;;;;;765232;183;918937;-71
2021/05/30 08:14:25;;;;;;;6.32;4.35;;;;;;;;;;764988;183;919502;-70
2021/05/30 08:16:51;;;;;;;7.90;4.60;;;;;;;;;;772395;183;919066;-72
2021/05/30 08:19:16;;;;;;;6.93;5.70;;;;;;;;;;766937;183;918283;-72
2021/05/30 08:21:43;;;;;;;5.67;3.70;;;;;;;;;;763912;183;1020778;-72
2021/05/30 08:24:08;;;;;;;7.90;5.90;;;;;;;;;;766952;183;919414;-71
2021/05/30 08:26:34;;;;;;;9.07;5.73;;;;;;;;;;770441;183;628588;-71
2021/05/30 08:29:00;;;;;;;15.37;10.00;;;;;;;;;;763824;183;917568;-71
2021/05/30 08:31:26;;;;;;;14.33;9.43;;;;;;;;;;769390;183;918930;-70
2021/05/30 08:33:52;;;;;;;15.77;8.70;;;;;;;;;;768177;183;918054;-71
2021/05/30 08:36:17;;;;;;;10.80;7.23;;;;;;;;;;764814;183;918499;-70
2021/05/30 08:38:43;;;;;;;51.40;27.30;;;;;;;;;;764660;180;918985;-69
2021/05/30 08:41:09;;;;;;;41.37;21.97;;;;;;;;;;771594;182;920915;-71
2021/05/30 08:43:35;;;;;;;20.10;11.60;;;;;;;;;;767058;181;919008;-71
2021/05/30 08:46:01;;;;;;;23.40;14.13;;;;;;;;;;766506;183;918613;-73
2021/05/30 08:48:27;;;;;;;10.93;6.73;;;;;;;;;;770587;183;921330;-73
2021/05/30 08:53:24;;;;;;;9.23;5.97;;;;;;;;;;763723;183;944747;-74
2021/05/30 08:55:50;;;;;;;11.73;8.15;;;;;;;;;;765949;183;915900;-69
2021/05/30 08:58:16;;;;;;;9.43;7.93;;;;;;;;;;761642;183;916089;-70
2021/05/30 09:00:42;;;;;;;6.63;5.90;;;;;;;;;;770270;183;639287;-74
2021/05/30 09:03:10;;;;;;;7.57;5.80;;;;;;;;;;765039;183;914138;-70
2021/05/30 09:05:35;;;;;;;8.93;4.97;;;;;;;;;;771339;183;906888;-70
2021/05/30 09:08:01;;;;;;;5.27;4.10;;;;;;;;;;766339;183;919441;-71
2021/05/30 09:10:29;;;;;;;5.10;4.00;;;;;;;;;;766502;183;919237;-69
2021/05/30 09:12:59;;;;;;;6.57;4.50;;;;;;;;;;768865;183;915339;-71
2021/05/30 09:15:55;;;;;;;6.17;4.93;;;;;;;;;;766407;183;918989;-70
2021/05/30 09:18:19;;;;;;;7.07;4.40;;;;;;;;;;769211;183;918186;-73
2021/05/30 09:20:49;;;;;;;7.60;4.00;;;;;;;;;;767680;183;918618;-72
2021/05/30 09:23:21;;;;;;;6.57;4.43;;;;;;;;;;768919;183;919729;-70
2021/05/30 09:25:47;;;;;;;4.40;3.73;;;;;;;;;;768092;183;918431;-72
2021/05/30 09:28:13;;;;;;;5.80;4.70;;;;;;;;;;772697;183;617996;-72
2021/05/30 09:30:42;;;;;;;5.70;4.70;;;;;;;;;;768615;183;818063;-72
2021/05/30 09:33:06;;;;;;;6.43;5.03;;;;;;;;;;767677;183;613692;-72
2021/05/30 09:35:51;;;;;;;9.43;4.47;;;;;;;;;;766423;183;905930;-72
2021/05/30 09:38:17;;;;;;;8.80;3.50;;;;;;;;;;766117;183;917150;-73
2021/05/30 09:40:49;;;;;;;5.30;4.10;;;;;;;;;;772136;183;918315;-71
2021/05/30 09:43:16;;;;;;;5.67;3.60;;;;;;;;;;761065;183;1020277;-71
2021/05/30 09:45:42;;;;;;;4.50;3.33;;;;;;;;;;766160;183;918826;-73
2021/05/30 09:48:13;;;;;;;7.50;4.07;;;;;;;;;;764168;183;918162;-73
2021/05/30 09:50:39;;;;;;;5.17;3.40;;;;;;;;;;767734;181;932741;-73
2021/05/30 09:53:05;;;;;;;4.70;3.20;;;;;;;;;;766146;182;933661;-72
2021/05/30 09:55:33;;;;;;;6.03;3.07;;;;;;;;;;767232;182;915881;-73
2021/05/30 09:58:03;;;;;;;4.10;3.50;;;;;;;;;;770480;183;918878;-72
2021/05/30 10:00:28;;;;;;;4.20;3.20;;;;;;;;;;772953;183;918062;-73
2021/05/30 10:02:54;;;;;;;4.87;2.70;;;;;;;;;;765944;183;944374;-72
2021/05/30 10:05:20;;;;;;;4.77;3.30;;;;;;;;;;766579;183;923509;-74
2021/05/30 10:07:46;;;;;;;3.10;2.37;;;;;;;;;;772515;183;918115;-73
2021/05/30 10:10:12;;;;;;;4.10;2.90;;;;;;;;;;764823;183;918301;-74
2021/05/30 10:12:38;;;;;;;3.50;2.77;;;;;;;;;;765961;183;917777;-74
2021/05/30 10:15:04;;;;;;;4.27;2.97;;;;;;;;;;774978;180;630472;-74
2021/05/30 10:17:30;;;;;;;5.60;3.80;;;;;;;;;;769008;183;622011;-73
2021/05/30 10:19:55;;;;;;;4.27;3.50;;;;;;;;;;767682;183;815742;-72
2021/05/30 10:22:23;;;;;;;4.90;4.13;;;;;;;;;;772695;183;637904;-72
2021/05/30 10:24:47;;;;;;;5.30;3.50;;;;;;;;;;766606;183;919250;-74
2021/05/30 10:27:15;;;;;;;4.35;3.42;;;;;;;;;;769618;183;626435;-73
2021/05/30 10:29:39;;;;;;;7.30;3.53;;;;;;;;;;767490;183;816219;-74
2021/05/30 10:32:20;;;;;;;3.20;2.80;;;;;;;;;;772059;183;627799;-73
2021/05/30 10:35:02;;;;;;;4.23;2.83;;;;;;;;;;771357;181;916431;-73
2021/05/30 10:37:28;;;;;;;4.63;3.40;;;;;;;;;;772544;183;797902;-75
2021/05/30 10:39:56;;;;;;;4.03;3.37;;;;;;;;;;766085;183;916254;-73
2021/05/30 10:42:23;;;;;;;4.20;2.80;;;;;;;;;;764625;183;916766;-74
2021/05/30 10:44:49;;;;;;;4.80;3.67;;;;;;;;;;762689;184;922983;-74
2021/05/30 10:47:15;;;;;;;4.30;3.30;;;;;;;;;;764890;183;922272;-75
2021/05/30 10:49:47;;;;;;;4.20;3.15;;;;;;;;;;765602;183;914063;-74
2021/05/30 10:52:13;;;;;;;4.97;3.62;;;;;;;;;;764736;182;917054;-74
2021/05/30 10:54:39;;;;;;;5.43;4.30;;;;;;;;;;767568;183;913578;-74
2021/05/30 10:57:05;;;;;;;5.10;3.90;;;;;;;;;;764734;183;915595;-74
2021/05/30 10:59:31;;;;;;;7.25;5.10;;;;;;;;;;765160;183;918274;-74
2021/05/30 11:01:56;;;;;;;26.47;14.63;;;;;;;;;;767520;183;915045;-74
2021/05/30 11:04:32;;;;;;;15.77;7.80;;;;;;;;;;768745;182;805715;-73
2021/05/30 11:07:00;;;;;;;11.17;6.90;;;;;;;;;;768706;183;819380;-73
2021/05/30 11:09:46;;;;;;;13.10;8.40;;;;;;;;;;766228;183;913255;-74
2021/05/30 11:12:17;;;;;;;7.73;5.73;;;;;;;;;;765857;183;905675;-74
2021/05/30 11:14:49;;;;;;;5.90;3.70;;;;;;;;;;761536;182;1778914;-74
2021/05/30 11:17:15;;;;;;;4.33;3.07;;;;;;;;;;774702;179;822905;-74
2021/05/30 11:19:41;;;;;;;9.10;7.63;;;;;;;;;;768543;183;918620;-74
2021/05/30 11:22:07;;;;;;;5.75;4.03;;;;;;;;;;767221;183;914422;-72
2021/05/30 11:24:33;;;;;;;6.27;4.30;;;;;;;;;;769746;183;915309;-74
2021/05/30 11:26:59;;;;;;;6.43;3.70;;;;;;;;;;765912;183;917458;-73
2021/05/30 11:29:24;;;;;;;4.30;2.83;;;;;;;;;;767377;183;777940;-74
2021/05/30 11:31:51;;;;;;;4.57;3.10;;;;;;;;;;771979;183;915489;-73
2021/05/30 11:34:17;;;;;;;4.20;3.30;;;;;;;;;;766691;181;919176;-73
2021/05/30 11:36:43;;;;;;;4.97;3.50;;;;;;;;;;765240;183;919351;-75
2021/05/30 11:39:09;;;;;;;5.70;4.10;;;;;;;;;;761437;183;946837;-74
2021/05/30 11:41:34;;;;;;;7.10;4.53;;;;;;;;;;772399;183;622717;-77
2021/05/30 11:44:02;;;;;;;5.47;4.50;;;;;;;;;;768270;183;627158;-76
2021/05/30 11:46:28;;;;;;;4.27;2.73;;;;;;;;;;767145;183;917848;-74
2021/05/30 11:49:01;;;;;;;4.40;3.10;;;;;;;;;;769477;183;918359;-75
2021/05/30 11:51:27;;;;;;;6.83;3.63;;;;;;;;;;772073;183;919650;-76
2021/05/30 11:53:52;;;;;;;6.20;5.00;;;;;;;;;;767506;183;641561;-75
2021/05/30 11:56:18;;;;;;;10.40;4.87;;;;;;;;;;767474;183;639252;-77
2021/05/30 11:58:45;;;;;;;6.30;4.20;;;;;;;;;;772856;183;815812;-77
2021/05/30 12:01:11;;;;;;;7.30;4.60;;;;;;;;;;765334;183;918822;-76
2021/05/30 12:03:37;;;;;;;6.77;5.30;;;;;;;;;;766234;180;815394;-74
2021/05/30 12:06:02;;;;;;;12.70;9.00;;;;;;;;;;769287;183;916912;-75
2021/05/30 12:08:28;;;;;;;4.77;4.17;;;;;;;;;;767803;183;884545;-75
2021/05/30 12:10:57;;;;;;;5.80;4.00;;;;;;;;;;764352;183;925145;-76
2021/05/30 12:13:25;;;;;;;6.90;4.57;;;;;;;;;;766114;183;919064;-75
2021/05/30 12:15:51;;;;;;;5.77;4.37;;;;;;;;;;773386;182;712771;-76
2021/05/30 12:18:16;;;;;;;6.65;4.78;;;;;;;;;;768643;182;929168;-74
2021/05/30 12:20:44;;;;;;;16.93;11.30;;;;;;;;;;768514;183;919052;-77
2021/05/30 12:23:12;;;;;;;25.60;13.90;;;;;;;;;;772683;183;868664;-76
2021/05/30 12:25:44;;;;;;;16.27;9.33;;;;;;;;;;766893;183;919028;-77
2021/05/30 12:28:09;;;;;;;59.57;32.33;;;;;;;;;;768091;182;941929;-76
2021/05/30 12:30:35;;;;;;;21.67;13.65;;;;;;;;;;763097;183;924657;-76
2021/05/30 12:33:02;;;;;;;12.50;6.70;;;;;;;;;;765089;183;1014424;-74
2021/05/30 12:35:33;;;;;;;12.80;8.97;;;;;;;;;;767584;181;817633;-73
2021/05/30 12:37:59;;;;;;;17.43;10.83;;;;;;;;;;765656;183;918556;-75
2021/05/30 12:40:25;;;;;;;13.23;10.57;;;;;;;;;;768251;181;931197;-76
2021/05/30 12:42:51;;;;;;;10.13;6.40;;;;;;;;;;768220;181;809128;-72
2021/05/30 12:45:17;;;;;;;10.95;6.72;;;;;;;;;;766436;183;918452;-77
2021/05/30 12:47:42;;;;;;;11.60;8.77;;;;;;;;;;768119;183;896531;-73
2021/05/30 12:50:08;;;;;;;9.47;5.53;;;;;;;;;;767755;183;919067;-71
2021/05/30 12:52:40;;;;;;;5.78;4.05;;;;;;;;;;765544;183;876311;-77
2021/05/30 12:55:07;;;;;;;8.63;6.10;;;;;;;;;;761924;183;922278;-74
2021/05/30 12:57:34;;;;;;;19.55;17.15;;;;;;;;;;768837;183;918954;-76
2021/05/30 13:00:00;;;;;;;12.57;9.20;;;;;;;;;;766962;183;816183;-75
2021/05/30 13:02:26;;;;;;;9.33;6.00;;;;;;;;;;764066;183;816675;-76
2021/05/30 13:04:52;;;;;;;7.12;3.90;;;;;;;;;;764408;183;1444681;-75
2021/05/30 13:07:18;;;;;;;7.03;4.57;;;;;;;;;;769869;183;816166;-75
2021/05/30 13:09:55;;;;;;;7.30;5.60;;;;;;;;;;762202;183;926779;-75
2021/05/30 13:12:23;;;;;;;19.73;12.73;;;;;;;;;;763816;183;918493;-76
2021/05/30 13:14:49;;;;;;;13.50;8.30;;;;;;;;;;766616;183;816372;-77
2021/05/30 13:17:16;;;;;;;16.20;10.60;;;;;;;;;;771573;183;790651;-76
2021/05/30 13:19:48;;;;;;;18.80;11.13;;;;;;;;;;765341;183;924058;-76
2021/05/30 13:22:14;;;;;;;11.43;8.30;;;;;;;;;;769018;183;630410;-76
2021/05/30 13:24:40;;;;;;;7.30;4.93;;;;;;;;;;767804;183;908258;-78
2021/05/30 13:27:06;;;;;;;9.40;5.83;;;;;;;;;;768370;182;895559;-78
2021/05/30 13:29:31;;;;;;;20.20;13.00;;;;;;;;;;771025;179;636622;-75
2021/05/30 13:31:57;;;;;;;25.97;11.80;;;;;;;;;;769430;183;635880;-78
2021/05/30 13:34:25;;;;;;;17.93;12.73;;;;;;;;;;774123;181;641576;-78
2021/05/30 13:36:50;;;;;;;6.90;5.50;;;;;;;;;;768488;183;760362;-77
2021/05/30 13:42:09;;;;;;;129.80;74.87;;;;;;;;;;753209;183;812265;-79
2021/05/30 13:47:00;;;;;;;10.83;6.57;;;;;;;;;;763110;175;813986;-77
2021/05/30 13:49:26;;;;;;;7.37;4.93;;;;;;;;;;761899;182;922974;-79
2021/05/30 13:51:52;;;;;;;7.40;5.40;;;;;;;;;;760962;182;816272;-75
2021/05/30 13:54:18;;;;;;;11.30;7.73;;;;;;;;;;762580;182;918829;-78
2021/05/30 13:56:44;;;;;;;9.68;5.47;;;;;;;;;;758372;183;918986;-79
2021/05/30 13:59:10;;;;;;;10.00;7.00;;;;;;;;;;757949;182;816244;-82
2021/05/30 14:01:35;;;;;;;9.45;6.60;;;;;;;;;;759992;182;881053;-77
2021/05/30 14:04:01;;;;;;;9.43;6.40;;;;;;;;;;760592;182;918840;-80
2021/05/30 14:06:28;;;;;;;7.70;6.17;;;;;;;;;;740206;188;918599;-80
2021/05/30 14:08:56;;;;;;;6.40;5.20;;;;;;;;;;759013;182;817163;-80
2021/05/30 14:11:19;;;;;;;9.57;4.87;;;;;;;;;;760692;182;735110;-81
2021/05/30 14:13:45;;;;;;;7.93;5.20;;;;;;;;;;756042;182;921212;-79
2021/05/30 14:16:11;;;;;;;6.80;5.30;;;;;;;;;;756587;182;918607;-76
2021/05/30 14:18:37;;;;;;;5.33;3.93;;;;;;;;;;762107;182;918960;-77
2021/05/30 14:21:03;;;;;;;5.70;4.97;;;;;;;;;;752809;183;920385;-72
2021/05/30 14:23:28;;;;;;;4.27;3.40;;;;;;;;;;759614;182;916856;-79